sensor_id;sensor_type;location;lat;lon;timestamp;P1;durP1;ratioP1;P2;durP2;ratioP2
37309;SDS011;23195;47.744;7.358;2023-04-25T07:20:15;6.70;;;2.60;;
37309;SDS011;23195;47.744;7.358;2023-04-25T07:22:44;2.80;;;2.03;;
37309;SDS011;23195;47.744;7.358;2023-04-25T07:25:32;2.53;;;2.10;;
37309;SDS011;23195;47.744;7.358;2023-04-25T07:28:01;3.70;;;2.60;;
37309;SDS011;23195;47.744;7.358;2023-04-25T07:30:30;3.10;;;2.43;;
37309;SDS011;23195;47.744;7.358;2023-04-25T07:33:04;4.53;;;2.23;;
37309;SDS011;23195;47.744;7.358;2023-04-25T07:35:36;2.73;;;2.27;;
37309;SDS011;23195;47.744;7.358;2023-04-25T07:38:04;2.27;;;2.00;;
37309;SDS011;23195;47.744;7.358;2023-04-25T07:40:31;4.27;;;2.70;;
37309;SDS011;23195;47.744;7.358;2023-04-25T07:42:57;2.63;;;2.10;;
37309;SDS011;23195;47.744;7.358;2023-04-25T07:45:23;3.20;;;2.00;;
37309;SDS011;23195;47.744;7.358;2023-04-25T07:47:49;5.17;;;1.80;;
37309;SDS011;23195;47.744;7.358;2023-04-25T07:50:17;2.60;;;2.10;;
37309;SDS011;23195;47.744;7.358;2023-04-25T07:52:43;3.60;;;1.90;;
37309;SDS011;23195;47.744;7.358;2023-04-25T07:55:09;3.20;;;2.20;;
37309;SDS011;23195;47.744;7.358;2023-04-25T07:57:44;4.17;;;1.90;;
37309;SDS011;23195;47.744;7.358;2023-04-25T08:00:10;2.27;;;1.73;;
37309;SDS011;23195;47.744;7.358;2023-04-25T08:02:37;2.63;;;1.80;;
37309;SDS011;23195;47.744;7.358;2023-04-25T08:05:03;3.10;;;2.00;;
37309;SDS011;23195;47.744;7.358;2023-04-25T08:07:39;3.10;;;2.37;;
37309;SDS011;23195;47.744;7.358;2023-04-25T08:10:06;2.87;;;2.07;;
37309;SDS011;23195;47.744;7.358;2023-04-25T08:12:35;2.70;;;1.97;;
37309;SDS011;23195;47.744;7.358;2023-04-25T08:15:04;1.90;;;1.70;;
37309;SDS011;23195;47.744;7.358;2023-04-25T08:17:33;2.17;;;1.97;;
37309;SDS011;23195;47.744;7.358;2023-04-25T08:20:02;2.50;;;1.70;;
37309;SDS011;23195;47.744;7.358;2023-04-25T08:22:37;3.63;;;1.60;;
37309;SDS011;23195;47.744;7.358;2023-04-25T08:25:22;3.83;;;2.13;;
37309;SDS011;23195;47.744;7.358;2023-04-25T08:27:48;5.67;;;2.80;;
37309;SDS011;23195;47.744;7.358;2023-04-25T08:30:17;3.90;;;2.17;;
37309;SDS011;23195;47.744;7.358;2023-04-25T08:32:52;2.13;;;1.83;;
37309;SDS011;23195;47.744;7.358;2023-04-25T08:35:24;3.70;;;2.03;;
37309;SDS011;23195;47.744;7.358;2023-04-25T08:38:10;3.03;;;1.77;;
37309;SDS011;23195;47.744;7.358;2023-04-25T08:40:39;4.40;;;2.30;;
37309;SDS011;23195;47.744;7.358;2023-04-25T08:43:09;3.00;;;2.00;;
37309;SDS011;23195;47.744;7.358;2023-04-25T08:48:54;2.53;;;1.97;;
37309;SDS011;23195;47.744;7.358;2023-04-25T08:51:25;2.87;;;2.00;;
37309;SDS011;23195;47.744;7.358;2023-04-25T08:53:52;2.40;;;1.90;;
37309;SDS011;23195;47.744;7.358;2023-04-25T08:56:26;3.13;;;2.00;;
37309;SDS011;23195;47.744;7.358;2023-04-25T08:59:12;2.43;;;1.80;;
37309;SDS011;23195;47.744;7.358;2023-04-25T09:02:03;1.60;;;1.30;;
37309;SDS011;23195;47.744;7.358;2023-04-25T09:04:49;2.07;;;1.40;;
37309;SDS011;23195;47.744;7.358;2023-04-25T09:07:22;1.57;;;1.23;;
37309;SDS011;23195;47.744;7.358;2023-04-25T09:09:57;2.70;;;1.53;;
37309;SDS011;23195;47.744;7.358;2023-04-25T09:12:32;1.20;;;1.10;;
37309;SDS011;23195;47.744;7.358;2023-04-25T09:15:09;1.67;;;1.47;;
37309;SDS011;23195;47.744;7.358;2023-04-25T09:17:49;1.70;;;1.00;;
37309;SDS011;23195;47.744;7.358;2023-04-25T09:20:28;1.47;;;1.30;;
37309;SDS011;23195;47.744;7.358;2023-04-25T09:23:01;1.20;;;1.10;;
37309;SDS011;23195;47.744;7.358;2023-04-25T09:25:38;1.70;;;1.20;;
37309;SDS011;23195;47.744;7.358;2023-04-25T09:28:04;1.30;;;1.20;;
37309;SDS011;23195;47.744;7.358;2023-04-25T09:30:34;1.20;;;1.10;;
37309;SDS011;23195;47.744;7.358;2023-04-25T09:33:08;3.43;;;1.30;;
37309;SDS011;23195;47.744;7.358;2023-04-25T09:35:35;3.37;;;1.40;;
37309;SDS011;23195;47.744;7.358;2023-04-25T09:38:07;1.50;;;1.40;;
37309;SDS011;23195;47.744;7.358;2023-04-25T09:40:46;2.47;;;1.40;;
37309;SDS011;23195;47.744;7.358;2023-04-25T09:43:20;4.50;;;1.57;;
37309;SDS011;23195;47.744;7.358;2023-04-25T09:45:47;1.63;;;1.40;;
37309;SDS011;23195;47.744;7.358;2023-04-25T09:48:19;3.33;;;1.53;;
37309;SDS011;23195;47.744;7.358;2023-04-25T09:51:07;3.27;;;1.77;;
37309;SDS011;23195;47.744;7.358;2023-04-25T09:53:45;2.17;;;1.67;;
37309;SDS011;23195;47.744;7.358;2023-04-25T09:56:14;1.87;;;1.63;;
37309;SDS011;23195;47.744;7.358;2023-04-25T09:58:41;2.33;;;1.60;;
37309;SDS011;23195;47.744;7.358;2023-04-25T10:01:10;1.93;;;1.50;;
37309;SDS011;23195;47.744;7.358;2023-04-25T10:03:39;2.37;;;1.57;;
37309;SDS011;23195;47.744;7.358;2023-04-25T10:06:17;2.53;;;1.97;;
37309;SDS011;23195;47.744;7.358;2023-04-25T10:08:45;3.43;;;2.00;;
37309;SDS011;23195;47.744;7.358;2023-04-25T10:11:16;2.70;;;1.70;;
37309;SDS011;23195;47.744;7.358;2023-04-25T10:13:42;2.60;;;1.70;;
37309;SDS011;23195;47.744;7.358;2023-04-25T10:16:08;3.73;;;2.00;;
37309;SDS011;23195;47.744;7.358;2023-04-25T10:18:39;1.60;;;1.50;;
37309;SDS011;23195;47.744;7.358;2023-04-25T10:21:05;5.23;;;1.70;;
37309;SDS011;23195;47.744;7.358;2023-04-25T10:23:32;2.70;;;1.83;;
37309;SDS011;23195;47.744;7.358;2023-04-25T10:26:02;2.67;;;1.50;;
37309;SDS011;23195;47.744;7.358;2023-04-25T10:28:28;2.60;;;1.70;;
37309;SDS011;23195;47.744;7.358;2023-04-25T10:31:01;1.90;;;1.50;;
37309;SDS011;23195;47.744;7.358;2023-04-25T10:33:37;4.43;;;1.60;;
37309;SDS011;23195;47.744;7.358;2023-04-25T10:36:23;1.83;;;1.60;;
37309;SDS011;23195;47.744;7.358;2023-04-25T10:38:52;2.40;;;1.40;;
37309;SDS011;23195;47.744;7.358;2023-04-25T10:41:25;2.67;;;1.20;;
37309;SDS011;23195;47.744;7.358;2023-04-25T10:44:00;2.83;;;1.23;;
37309;SDS011;23195;47.744;7.358;2023-04-25T10:46:29;5.60;;;3.53;;
37309;SDS011;23195;47.744;7.358;2023-04-25T10:49:01;2.23;;;1.10;;
37309;SDS011;23195;47.744;7.358;2023-04-25T10:51:28;1.90;;;1.03;;
37309;SDS011;23195;47.744;7.358;2023-04-25T10:54:04;2.10;;;1.20;;
37309;SDS011;23195;47.744;7.358;2023-04-25T10:56:31;3.63;;;1.47;;
37309;SDS011;23195;47.744;7.358;2023-04-25T10:59:09;2.10;;;1.37;;
37309;SDS011;23195;47.744;7.358;2023-04-25T11:01:40;2.20;;;1.80;;
37309;SDS011;23195;47.744;7.358;2023-04-25T11:04:20;3.30;;;1.67;;
37309;SDS011;23195;47.744;7.358;2023-04-25T11:09:51;3.83;;;1.40;;
37309;SDS011;23195;47.744;7.358;2023-04-25T11:12:17;2.60;;;1.30;;
37309;SDS011;23195;47.744;7.358;2023-04-25T11:14:45;1.87;;;1.50;;
37309;SDS011;23195;47.744;7.358;2023-04-25T11:17:11;2.50;;;1.70;;
37309;SDS011;23195;47.744;7.358;2023-04-25T11:19:40;1.50;;;1.27;;
37309;SDS011;23195;47.744;7.358;2023-04-25T11:22:06;3.77;;;1.47;;
37309;SDS011;23195;47.744;7.358;2023-04-25T11:24:33;2.20;;;1.40;;
37309;SDS011;23195;47.744;7.358;2023-04-25T11:27:03;2.80;;;1.60;;
37309;SDS011;23195;47.744;7.358;2023-04-25T11:29:31;1.70;;;1.10;;
37309;SDS011;23195;47.744;7.358;2023-04-25T11:32:06;2.43;;;1.10;;
37309;SDS011;23195;47.744;7.358;2023-04-25T11:34:35;1.70;;;1.00;;
37309;SDS011;23195;47.744;7.358;2023-04-25T11:37:04;3.40;;;1.40;;
37309;SDS011;23195;47.744;7.358;2023-04-25T11:39:42;1.77;;;1.20;;
37309;SDS011;23195;47.744;7.358;2023-04-25T11:42:26;2.47;;;1.20;;
37309;SDS011;23195;47.744;7.358;2023-04-25T11:44:52;2.17;;;0.90;;
37309;SDS011;23195;47.744;7.358;2023-04-25T11:47:18;1.73;;;1.00;;
37309;SDS011;23195;47.744;7.358;2023-04-25T11:49:43;1.00;;;0.80;;
37309;SDS011;23195;47.744;7.358;2023-04-25T11:52:09;0.63;;;0.50;;
37309;SDS011;23195;47.744;7.358;2023-04-25T11:54:35;2.00;;;1.17;;
37309;SDS011;23195;47.744;7.358;2023-04-25T11:57:05;0.80;;;0.80;;
37309;SDS011;23195;47.744;7.358;2023-04-25T11:59:31;1.60;;;0.90;;
37309;SDS011;23195;47.744;7.358;2023-04-25T12:01:57;1.60;;;0.93;;
37309;SDS011;23195;47.744;7.358;2023-04-25T12:04:23;2.60;;;0.90;;
37309;SDS011;23195;47.744;7.358;2023-04-25T12:06:50;1.33;;;1.00;;
37309;SDS011;23195;47.744;7.358;2023-04-25T12:09:20;1.50;;;0.87;;
37309;SDS011;23195;47.744;7.358;2023-04-25T12:11:54;1.30;;;0.90;;
37309;SDS011;23195;47.744;7.358;2023-04-25T12:14:27;2.60;;;1.00;;
37309;SDS011;23195;47.744;7.358;2023-04-25T12:16:55;1.23;;;0.90;;
37309;SDS011;23195;47.744;7.358;2023-04-25T12:19:25;2.10;;;1.00;;
37309;SDS011;23195;47.744;7.358;2023-04-25T12:22:02;1.57;;;0.87;;
37309;SDS011;23195;47.744;7.358;2023-04-25T12:24:28;1.47;;;0.90;;
37309;SDS011;23195;47.744;7.358;2023-04-25T12:27:00;3.93;;;1.20;;
37309;SDS011;23195;47.744;7.358;2023-04-25T12:29:31;2.07;;;1.10;;
37309;SDS011;23195;47.744;7.358;2023-04-25T12:31:58;2.70;;;1.00;;
37309;SDS011;23195;47.744;7.358;2023-04-25T12:34:26;1.80;;;1.30;;
37309;SDS011;23195;47.744;7.358;2023-04-25T12:36:55;2.77;;;1.30;;
37309;SDS011;23195;47.744;7.358;2023-04-25T12:39:22;1.50;;;0.97;;
37309;SDS011;23195;47.744;7.358;2023-04-25T12:41:52;3.10;;;1.60;;
37309;SDS011;23195;47.744;7.358;2023-04-25T12:44:21;2.77;;;1.10;;
37309;SDS011;23195;47.744;7.358;2023-04-25T12:46:47;2.83;;;1.30;;
37309;SDS011;23195;47.744;7.358;2023-04-25T12:49:13;2.20;;;1.30;;
37309;SDS011;23195;47.744;7.358;2023-04-25T12:51:39;2.70;;;1.40;;
37309;SDS011;23195;47.744;7.358;2023-04-25T12:54:06;2.57;;;1.40;;
37309;SDS011;23195;47.744;7.358;2023-04-25T12:56:33;2.20;;;1.43;;
37309;SDS011;23195;47.744;7.358;2023-04-25T12:59:00;2.00;;;1.53;;
37309;SDS011;23195;47.744;7.358;2023-04-25T13:01:27;3.47;;;1.40;;
37309;SDS011;23195;47.744;7.358;2023-04-25T13:03:54;1.60;;;1.47;;
37309;SDS011;23195;47.744;7.358;2023-04-25T13:06:21;2.00;;;1.80;;
37309;SDS011;23195;47.744;7.358;2023-04-25T13:08:47;1.77;;;1.37;;
37309;SDS011;23195;47.744;7.358;2023-04-25T13:11:13;1.57;;;1.20;;
37309;SDS011;23195;47.744;7.358;2023-04-25T13:13:43;1.53;;;1.40;;
37309;SDS011;23195;47.744;7.358;2023-04-25T13:16:09;2.50;;;1.27;;
37309;SDS011;23195;47.744;7.358;2023-04-25T13:18:37;2.47;;;1.07;;
37309;SDS011;23195;47.744;7.358;2023-04-25T13:21:02;1.90;;;1.13;;
37309;SDS011;23195;47.744;7.358;2023-04-25T13:23:29;1.97;;;1.37;;
37309;SDS011;23195;47.744;7.358;2023-04-25T13:25:55;4.10;;;1.30;;
37309;SDS011;23195;47.744;7.358;2023-04-25T13:28:26;1.53;;;1.20;;
37309;SDS011;23195;47.744;7.358;2023-04-25T13:30:52;3.70;;;1.00;;
37309;SDS011;23195;47.744;7.358;2023-04-25T13:33:19;2.23;;;1.20;;
37309;SDS011;23195;47.744;7.358;2023-04-25T13:35:45;1.30;;;0.90;;
37309;SDS011;23195;47.744;7.358;2023-04-25T13:38:14;1.93;;;0.80;;
37309;SDS011;23195;47.744;7.358;2023-04-25T13:40:40;1.57;;;0.70;;
37309;SDS011;23195;47.744;7.358;2023-04-25T13:43:06;1.90;;;0.80;;
37309;SDS011;23195;47.744;7.358;2023-04-25T13:45:32;1.50;;;0.90;;
37309;SDS011;23195;47.744;7.358;2023-04-25T13:47:57;1.53;;;0.80;;
37309;SDS011;23195;47.744;7.358;2023-04-25T13:50:23;1.63;;;0.77;;
37309;SDS011;23195;47.744;7.358;2023-04-25T13:52:49;0.80;;;0.80;;
37309;SDS011;23195;47.744;7.358;2023-04-25T13:55:18;1.50;;;1.00;;
37309;SDS011;23195;47.744;7.358;2023-04-25T13:57:44;0.90;;;0.87;;
37309;SDS011;23195;47.744;7.358;2023-04-25T14:00:10;2.20;;;1.70;;
37309;SDS011;23195;47.744;7.358;2023-04-25T14:02:37;3.40;;;1.37;;
37309;SDS011;23195;47.744;7.358;2023-04-25T14:05:03;4.17;;;1.70;;
37309;SDS011;23195;47.744;7.358;2023-04-25T14:07:30;2.70;;;1.20;;
37309;SDS011;23195;47.744;7.358;2023-04-25T14:09:56;3.83;;;1.60;;
37309;SDS011;23195;47.744;7.358;2023-04-25T14:12:22;2.70;;;1.50;;
37309;SDS011;23195;47.744;7.358;2023-04-25T14:14:51;2.77;;;1.27;;
37309;SDS011;23195;47.744;7.358;2023-04-25T14:17:19;1.70;;;0.83;;
37309;SDS011;23195;47.744;7.358;2023-04-25T14:19:45;2.10;;;0.70;;
37309;SDS011;23195;47.744;7.358;2023-04-25T14:22:13;2.43;;;1.10;;
37309;SDS011;23195;47.744;7.358;2023-04-25T14:24:40;3.27;;;1.00;;
37309;SDS011;23195;47.744;7.358;2023-04-25T14:27:06;5.67;;;1.20;;
37309;SDS011;23195;47.744;7.358;2023-04-25T14:29:32;1.93;;;0.90;;
37309;SDS011;23195;47.744;7.358;2023-04-25T14:31:58;2.20;;;0.90;;
37309;SDS011;23195;47.744;7.358;2023-04-25T14:34:24;1.83;;;0.70;;
37309;SDS011;23195;47.744;7.358;2023-04-25T14:36:50;2.70;;;1.00;;
37309;SDS011;23195;47.744;7.358;2023-04-25T14:39:16;2.40;;;1.20;;
37309;SDS011;23195;47.744;7.358;2023-04-25T14:41:46;2.30;;;1.47;;
37309;SDS011;23195;47.744;7.358;2023-04-25T14:44:12;5.37;;;1.33;;
37309;SDS011;23195;47.744;7.358;2023-04-25T14:46:37;1.50;;;1.13;;
37309;SDS011;23195;47.744;7.358;2023-04-25T14:49:03;3.47;;;1.30;;
37309;SDS011;23195;47.744;7.358;2023-04-25T14:51:30;2.27;;;1.10;;
37309;SDS011;23195;47.744;7.358;2023-04-25T14:53:56;2.63;;;1.50;;
37309;SDS011;23195;47.744;7.358;2023-04-25T14:56:22;4.27;;;1.53;;
37309;SDS011;23195;47.744;7.358;2023-04-25T14:58:47;2.53;;;1.47;;
37309;SDS011;23195;47.744;7.358;2023-04-25T15:01:16;2.33;;;1.40;;
37309;SDS011;23195;47.744;7.358;2023-04-25T15:03:42;2.63;;;1.57;;
37309;SDS011;23195;47.744;7.358;2023-04-25T15:06:08;4.33;;;1.90;;
37309;SDS011;23195;47.744;7.358;2023-04-25T15:08:36;2.13;;;1.40;;
37309;SDS011;23195;47.744;7.358;2023-04-25T15:11:02;1.50;;;1.30;;
37309;SDS011;23195;47.744;7.358;2023-04-25T15:13:28;2.70;;;1.43;;
37309;SDS011;23195;47.744;7.358;2023-04-25T15:15:54;4.23;;;1.40;;
37309;SDS011;23195;47.744;7.358;2023-04-25T15:18:20;1.50;;;1.20;;
37309;SDS011;23195;47.744;7.358;2023-04-25T15:20:48;1.50;;;1.20;;
37309;SDS011;23195;47.744;7.358;2023-04-25T15:23:18;3.13;;;1.23;;
37309;SDS011;23195;47.744;7.358;2023-04-25T15:25:46;1.50;;;1.07;;
37309;SDS011;23195;47.744;7.358;2023-04-25T15:28:12;1.70;;;1.40;;
37309;SDS011;23195;47.744;7.358;2023-04-25T15:30:44;2.93;;;0.90;;
37309;SDS011;23195;47.744;7.358;2023-04-25T15:33:10;1.47;;;1.30;;
37309;SDS011;23195;47.744;7.358;2023-04-25T15:35:36;1.40;;;1.20;;
37309;SDS011;23195;47.744;7.358;2023-04-25T15:38:01;2.83;;;1.20;;
37309;SDS011;23195;47.744;7.358;2023-04-25T15:40:27;1.30;;;1.20;;
37309;SDS011;23195;47.744;7.358;2023-04-25T15:42:56;2.40;;;1.30;;
37309;SDS011;23195;47.744;7.358;2023-04-25T15:45:22;2.83;;;1.37;;
37309;SDS011;23195;47.744;7.358;2023-04-25T15:47:54;2.30;;;1.50;;
37309;SDS011;23195;47.744;7.358;2023-04-25T15:50:26;3.80;;;1.60;;
37309;SDS011;23195;47.744;7.358;2023-04-25T15:52:52;2.23;;;1.53;;
37309;SDS011;23195;47.744;7.358;2023-04-25T15:55:18;1.50;;;1.30;;
37309;SDS011;23195;47.744;7.358;2023-04-25T15:57:56;1.57;;;1.40;;
37309;SDS011;23195;47.744;7.358;2023-04-25T16:00:22;3.73;;;2.40;;
37309;SDS011;23195;47.744;7.358;2023-04-25T16:02:48;6.73;;;3.30;;
37309;SDS011;23195;47.744;7.358;2023-04-25T16:05:17;4.47;;;2.27;;
37309;SDS011;23195;47.744;7.358;2023-04-25T16:07:50;2.20;;;1.90;;
37309;SDS011;23195;47.744;7.358;2023-04-25T16:10:23;5.67;;;2.10;;
37309;SDS011;23195;47.744;7.358;2023-04-25T16:12:54;3.10;;;1.80;;
37309;SDS011;23195;47.744;7.358;2023-04-25T16:15:20;7.83;;;2.57;;
37309;SDS011;23195;47.744;7.358;2023-04-25T16:17:48;4.63;;;2.47;;
37309;SDS011;23195;47.744;7.358;2023-04-25T16:20:17;6.37;;;3.13;;
37309;SDS011;23195;47.744;7.358;2023-04-25T16:22:42;5.13;;;3.30;;
37309;SDS011;23195;47.744;7.358;2023-04-25T16:25:09;4.27;;;2.37;;
37309;SDS011;23195;47.744;7.358;2023-04-25T16:27:36;3.00;;;2.70;;
37309;SDS011;23195;47.744;7.358;2023-04-25T16:30:07;4.77;;;3.03;;
37309;SDS011;23195;47.744;7.358;2023-04-25T16:32:36;3.70;;;2.73;;
37309;SDS011;23195;47.744;7.358;2023-04-25T16:35:03;3.80;;;2.67;;
37309;SDS011;23195;47.744;7.358;2023-04-25T16:37:29;4.67;;;2.10;;
37309;SDS011;23195;47.744;7.358;2023-04-25T16:39:55;4.50;;;2.70;;
37309;SDS011;23195;47.744;7.358;2023-04-25T16:42:23;5.40;;;2.73;;
37309;SDS011;23195;47.744;7.358;2023-04-25T16:44:49;2.63;;;2.37;;
37309;SDS011;23195;47.744;7.358;2023-04-25T16:47:17;7.67;;;2.53;;
37309;SDS011;23195;47.744;7.358;2023-04-25T16:49:44;5.90;;;2.30;;
37309;SDS011;23195;47.744;7.358;2023-04-25T16:52:09;2.43;;;2.10;;
37309;SDS011;23195;47.744;7.358;2023-04-25T16:54:39;4.20;;;2.30;;
37309;SDS011;23195;47.744;7.358;2023-04-25T16:57:17;3.47;;;2.30;;
37309;SDS011;23195;47.744;7.358;2023-04-25T16:59:43;5.73;;;2.57;;
37309;SDS011;23195;47.744;7.358;2023-04-25T17:02:09;3.37;;;2.17;;
37309;SDS011;23195;47.744;7.358;2023-04-25T17:04:39;3.17;;;2.20;;
37309;SDS011;23195;47.744;7.358;2023-04-25T17:07:06;3.40;;;2.47;;
37309;SDS011;23195;47.744;7.358;2023-04-25T17:09:32;7.70;;;2.30;;
37309;SDS011;23195;47.744;7.358;2023-04-25T17:12:01;2.83;;;2.50;;
37309;SDS011;23195;47.744;7.358;2023-04-25T17:14:28;4.90;;;2.33;;
37309;SDS011;23195;47.744;7.358;2023-04-25T17:16:59;3.00;;;2.07;;
37309;SDS011;23195;47.744;7.358;2023-04-25T17:19:25;2.83;;;2.00;;
37309;SDS011;23195;47.744;7.358;2023-04-25T17:21:52;4.03;;;2.17;;
37309;SDS011;23195;47.744;7.358;2023-04-25T17:24:21;3.67;;;1.97;;
37309;SDS011;23195;47.744;7.358;2023-04-25T17:26:47;4.03;;;2.00;;
37309;SDS011;23195;47.744;7.358;2023-04-25T17:29:15;3.47;;;2.20;;
37309;SDS011;23195;47.744;7.358;2023-04-25T17:31:50;4.07;;;2.60;;
37309;SDS011;23195;47.744;7.358;2023-04-25T17:34:17;3.17;;;2.63;;
37309;SDS011;23195;47.744;7.358;2023-04-25T17:36:43;4.37;;;2.80;;
37309;SDS011;23195;47.744;7.358;2023-04-25T17:39:09;3.53;;;2.40;;
37309;SDS011;23195;47.744;7.358;2023-04-25T17:41:38;3.03;;;2.30;;
37309;SDS011;23195;47.744;7.358;2023-04-25T17:44:04;5.17;;;2.33;;
37309;SDS011;23195;47.744;7.358;2023-04-25T17:46:48;4.37;;;3.87;;
37309;SDS011;23195;47.744;7.358;2023-04-25T17:49:15;5.57;;;3.40;;
37309;SDS011;23195;47.744;7.358;2023-04-25T17:51:41;3.63;;;3.20;;
37309;SDS011;23195;47.744;7.358;2023-04-25T17:54:14;4.50;;;3.00;;
37309;SDS011;23195;47.744;7.358;2023-04-25T17:56:40;6.60;;;3.57;;
37309;SDS011;23195;47.744;7.358;2023-04-25T17:59:18;6.80;;;5.13;;
37309;SDS011;23195;47.744;7.358;2023-04-25T18:01:47;5.87;;;3.97;;
37309;SDS011;23195;47.744;7.358;2023-04-25T18:04:42;4.97;;;3.33;;
37309;SDS011;23195;47.744;7.358;2023-04-25T18:07:10;3.23;;;2.93;;
37309;SDS011;23195;47.744;7.358;2023-04-25T18:09:42;3.30;;;2.77;;
37309;SDS011;23195;47.744;7.358;2023-04-25T18:12:08;4.00;;;2.80;;
37309;SDS011;23195;47.744;7.358;2023-04-25T18:14:37;3.90;;;3.10;;
37309;SDS011;23195;47.744;7.358;2023-04-25T18:17:03;4.70;;;3.33;;
37309;SDS011;23195;47.744;7.358;2023-04-25T18:19:38;9.37;;;5.07;;
37309;SDS011;23195;47.744;7.358;2023-04-25T18:22:04;5.57;;;3.60;;
37309;SDS011;23195;47.744;7.358;2023-04-25T18:24:30;4.97;;;3.70;;
37309;SDS011;23195;47.744;7.358;2023-04-25T18:26:58;6.50;;;3.97;;
37309;SDS011;23195;47.744;7.358;2023-04-25T18:29:29;5.03;;;3.93;;
37309;SDS011;23195;47.744;7.358;2023-04-25T18:31:55;5.20;;;3.93;;
37309;SDS011;23195;47.744;7.358;2023-04-25T18:34:32;5.07;;;3.37;;
37309;SDS011;23195;47.744;7.358;2023-04-25T18:37:09;5.37;;;3.87;;
37309;SDS011;23195;47.744;7.358;2023-04-25T18:39:37;3.13;;;2.73;;
37309;SDS011;23195;47.744;7.358;2023-04-25T18:42:05;4.73;;;3.03;;
37309;SDS011;23195;47.744;7.358;2023-04-25T18:44:34;3.80;;;2.70;;
37309;SDS011;23195;47.744;7.358;2023-04-25T18:47:06;5.67;;;3.10;;
37309;SDS011;23195;47.744;7.358;2023-04-25T18:49:34;3.30;;;2.93;;
37309;SDS011;23195;47.744;7.358;2023-04-25T18:52:02;3.00;;;2.53;;
37309;SDS011;23195;47.744;7.358;2023-04-25T18:54:29;4.33;;;2.57;;
37309;SDS011;23195;47.744;7.358;2023-04-25T18:56:56;3.77;;;3.00;;
37309;SDS011;23195;47.744;7.358;2023-04-25T18:59:24;3.40;;;2.77;;
37309;SDS011;23195;47.744;7.358;2023-04-25T19:01:51;5.10;;;2.97;;
37309;SDS011;23195;47.744;7.358;2023-04-25T19:04:24;4.37;;;3.27;;
37309;SDS011;23195;47.744;7.358;2023-04-25T19:06:50;3.70;;;2.80;;
37309;SDS011;23195;47.744;7.358;2023-04-25T19:09:16;3.87;;;3.10;;
37309;SDS011;23195;47.744;7.358;2023-04-25T19:11:45;3.70;;;3.13;;
37309;SDS011;23195;47.744;7.358;2023-04-25T19:14:16;4.17;;;3.13;;
37309;SDS011;23195;47.744;7.358;2023-04-25T19:16:47;4.60;;;3.73;;
37309;SDS011;23195;47.744;7.358;2023-04-25T19:19:13;5.27;;;4.07;;
37309;SDS011;23195;47.744;7.358;2023-04-25T19:21:44;4.97;;;3.90;;
37309;SDS011;23195;47.744;7.358;2023-04-25T19:24:13;6.60;;;4.50;;
37309;SDS011;23195;47.744;7.358;2023-04-25T19:26:45;9.10;;;7.60;;
37309;SDS011;23195;47.744;7.358;2023-04-25T19:29:21;8.67;;;7.20;;
37309;SDS011;23195;47.744;7.358;2023-04-25T19:31:47;7.83;;;6.03;;
37309;SDS011;23195;47.744;7.358;2023-04-25T19:34:15;9.47;;;5.67;;
37309;SDS011;23195;47.744;7.358;2023-04-25T19:36:44;8.77;;;5.17;;
37309;SDS011;23195;47.744;7.358;2023-04-25T19:39:10;8.83;;;6.20;;
37309;SDS011;23195;47.744;7.358;2023-04-25T19:41:38;7.20;;;5.53;;
37309;SDS011;23195;47.744;7.358;2023-04-25T19:44:07;8.37;;;6.40;;
37309;SDS011;23195;47.744;7.358;2023-04-25T19:46:42;9.40;;;6.27;;
37309;SDS011;23195;47.744;7.358;2023-04-25T19:49:13;8.30;;;6.23;;
37309;SDS011;23195;47.744;7.358;2023-04-25T19:51:42;9.10;;;6.43;;
37309;SDS011;23195;47.744;7.358;2023-04-25T19:54:10;11.63;;;7.60;;
37309;SDS011;23195;47.744;7.358;2023-04-25T19:56:52;9.07;;;6.87;;
37309;SDS011;23195;47.744;7.358;2023-04-25T19:59:26;8.37;;;6.33;;
37309;SDS011;23195;47.744;7.358;2023-04-25T20:01:58;15.93;;;9.80;;
37309;SDS011;23195;47.744;7.358;2023-04-25T20:04:28;13.57;;;9.10;;
37309;SDS011;23195;47.744;7.358;2023-04-25T20:06:54;11.07;;;7.87;;
37309;SDS011;23195;47.744;7.358;2023-04-25T20:09:23;12.77;;;8.60;;
37309;SDS011;23195;47.744;7.358;2023-04-25T20:12:34;14.33;;;9.47;;
37309;SDS011;23195;47.744;7.358;2023-04-25T20:50:07;12.33;;;8.90;;
37309;SDS011;23195;47.744;7.358;2023-04-25T20:52:39;12.53;;;8.40;;
37309;SDS011;23195;47.744;7.358;2023-04-25T20:55:05;12.60;;;7.80;;
37309;SDS011;23195;47.744;7.358;2023-04-25T20:57:32;10.20;;;7.63;;
37309;SDS011;23195;47.744;7.358;2023-04-25T21:03:23;17.67;;;10.43;;
37309;SDS011;23195;47.744;7.358;2023-04-25T21:06:06;14.87;;;10.57;;
37309;SDS011;23195;47.744;7.358;2023-04-25T21:09:19;13.70;;;10.20;;
37309;SDS011;23195;47.744;7.358;2023-04-25T21:12:24;15.13;;;10.50;;
37309;SDS011;23195;47.744;7.358;2023-04-25T21:15:22;16.70;;;10.50;;
37309;SDS011;23195;47.744;7.358;2023-04-25T21:18:17;16.97;;;10.20;;
37309;SDS011;23195;47.744;7.358;2023-04-25T21:20:51;15.83;;;10.03;;
37309;SDS011;23195;47.744;7.358;2023-04-25T21:23:20;17.53;;;9.93;;
37309;SDS011;23195;47.744;7.358;2023-04-25T21:25:49;19.43;;;11.23;;
37309;SDS011;23195;47.744;7.358;2023-04-25T21:28:17;15.90;;;10.53;;
37309;SDS011;23195;47.744;7.358;2023-04-25T21:30:43;17.87;;;10.97;;
37309;SDS011;23195;47.744;7.358;2023-04-25T21:33:09;15.00;;;9.93;;
37309;SDS011;23195;47.744;7.358;2023-04-25T21:35:35;17.17;;;10.10;;
37309;SDS011;23195;47.744;7.358;2023-04-25T21:38:03;15.57;;;9.97;;
37309;SDS011;23195;47.744;7.358;2023-04-25T21:40:32;18.30;;;10.97;;
37309;SDS011;23195;47.744;7.358;2023-04-25T21:42:58;16.47;;;10.17;;
37309;SDS011;23195;47.744;7.358;2023-04-25T21:45:27;17.50;;;10.70;;
37309;SDS011;23195;47.744;7.358;2023-04-25T21:47:56;21.93;;;12.30;;
37309;SDS011;23195;47.744;7.358;2023-04-25T21:50:22;18.33;;;10.83;;
37309;SDS011;23195;47.744;7.358;2023-04-25T21:52:47;15.70;;;10.33;;
37309;SDS011;23195;47.744;7.358;2023-04-25T21:55:16;16.40;;;9.23;;
37309;SDS011;23195;47.744;7.358;2023-04-25T21:57:46;16.57;;;9.90;;
37309;SDS011;23195;47.744;7.358;2023-04-25T22:00:12;14.73;;;9.33;;
37309;SDS011;23195;47.744;7.358;2023-04-25T22:02:54;16.60;;;11.00;;
37309;SDS011;23195;47.744;7.358;2023-04-25T22:05:20;14.60;;;9.53;;
37309;SDS011;23195;47.744;7.358;2023-04-25T22:07:50;15.93;;;10.67;;
37309;SDS011;23195;47.744;7.358;2023-04-25T22:10:20;16.10;;;10.73;;
37309;SDS011;23195;47.744;7.358;2023-04-25T22:12:46;19.13;;;11.23;;
37309;SDS011;23195;47.744;7.358;2023-04-25T22:15:20;17.73;;;11.73;;
37309;SDS011;23195;47.744;7.358;2023-04-25T22:17:50;18.50;;;12.03;;
37309;SDS011;23195;47.744;7.358;2023-04-25T22:20:19;17.43;;;10.93;;
37309;SDS011;23195;47.744;7.358;2023-04-25T22:22:49;17.33;;;11.33;;
37309;SDS011;23195;47.744;7.358;2023-04-25T22:25:15;18.10;;;10.97;;
37309;SDS011;23195;47.744;7.358;2023-04-25T22:27:41;16.10;;;10.57;;
37309;SDS011;23195;47.744;7.358;2023-04-25T22:30:08;19.37;;;11.57;;
37309;SDS011;23195;47.744;7.358;2023-04-25T22:32:35;21.07;;;12.47;;
37309;SDS011;23195;47.744;7.358;2023-04-25T22:35:01;18.60;;;11.97;;
37309;SDS011;23195;47.744;7.358;2023-04-25T22:37:28;20.53;;;13.10;;
37309;SDS011;23195;47.744;7.358;2023-04-25T22:39:54;21.93;;;12.07;;
37309;SDS011;23195;47.744;7.358;2023-04-25T22:42:20;19.80;;;12.00;;
37309;SDS011;23195;47.744;7.358;2023-04-25T22:44:46;18.83;;;12.17;;
37309;SDS011;23195;47.744;7.358;2023-04-25T22:47:11;24.47;;;13.50;;
37309;SDS011;23195;47.744;7.358;2023-04-25T22:49:37;20.40;;;12.87;;
37309;SDS011;23195;47.744;7.358;2023-04-25T22:52:03;24.07;;;13.57;;
37309;SDS011;23195;47.744;7.358;2023-04-25T22:54:32;23.80;;;14.57;;
37309;SDS011;23195;47.744;7.358;2023-04-25T22:56:58;21.13;;;13.57;;
37309;SDS011;23195;47.744;7.358;2023-04-25T22:59:24;20.40;;;13.30;;
37309;SDS011;23195;47.744;7.358;2023-04-25T23:01:50;20.97;;;12.50;;